createdAt,value
2018-08-12T00:01:44.805Z,51.90
2018-08-12T00:04:13.352Z,52.00
2018-08-12T00:06:41.675Z,52.10
2018-08-12T00:09:10.776Z,52.30
2018-08-12T00:11:38.974Z,52.40
2018-08-12T00:14:07.275Z,52.50
2018-08-12T00:16:35.998Z,52.60
2018-08-12T00:19:04.224Z,52.80
2018-08-12T00:21:32.441Z,52.90
2018-08-12T00:24:00.674Z,53.00
2018-08-12T00:26:28.848Z,53.10
2018-08-12T00:28:56.990Z,53.20
2018-08-12T00:31:25.106Z,53.10
2018-08-12T00:33:53.237Z,53.10
2018-08-12T00:36:21.361Z,53.70
2018-08-12T00:38:49.486Z,53.20
2018-08-12T00:41:17.618Z,53.30
2018-08-12T00:43:45.755Z,54.10
2018-08-12T00:46:13.891Z,53.40
2018-08-12T00:48:42.033Z,53.60
2018-08-12T00:51:10.186Z,53.90
2018-08-12T00:53:38.317Z,53.60
2018-08-12T00:56:06.457Z,53.60
2018-08-12T00:58:34.605Z,53.80
2018-08-12T01:01:02.804Z,53.70
2018-08-12T01:03:30.950Z,53.90
2018-08-12T01:05:59.077Z,54.10
2018-08-12T01:08:27.204Z,54.20
2018-08-12T01:10:55.328Z,54.50
2018-08-12T01:13:23.498Z,54.80
2018-08-12T01:15:51.643Z,55.00
2018-08-12T01:18:19.793Z,55.20
2018-08-12T01:20:47.936Z,55.50
2018-08-12T01:23:16.085Z,55.40
2018-08-12T01:25:44.257Z,55.30
2018-08-12T01:28:12.407Z,55.20
2018-08-12T01:30:40.630Z,55.00
2018-08-12T01:33:08.783Z,54.90
2018-08-12T01:35:36.914Z,54.90
2018-08-12T01:38:05.045Z,55.20
2018-08-12T01:40:33.243Z,55.30
2018-08-12T01:43:01.439Z,55.20
2018-08-12T01:45:29.587Z,54.90
2018-08-12T01:47:57.743Z,54.50
2018-08-12T01:50:25.902Z,54.50
2018-08-12T01:52:54.018Z,54.70
2018-08-12T01:55:22.242Z,54.70
2018-08-12T01:57:50.397Z,54.50
2018-08-12T02:00:20.942Z,54.40
2018-08-12T02:02:49.280Z,54.20
2018-08-12T02:05:17.804Z,54.10
2018-08-12T02:07:45.928Z,53.90
2018-08-12T02:10:14.077Z,53.50
2018-08-12T02:12:42.196Z,53.40
2018-08-12T02:15:11.318Z,53.40
2018-08-12T02:17:39.889Z,53.70
2018-08-12T02:20:08.713Z,53.10
2018-08-12T02:22:37.386Z,53.50
2018-08-12T02:25:05.860Z,53.50
2018-08-12T02:27:34.018Z,53.70
2018-08-12T02:30:02.141Z,53.80
2018-08-12T02:32:30.413Z,53.80
2018-08-12T02:34:58.533Z,53.70
2018-08-12T02:37:26.657Z,53.60
2018-08-12T02:39:54.790Z,53.50
2018-08-12T02:42:22.918Z,53.50
2018-08-12T02:44:51.055Z,53.60
2018-08-12T02:47:19.181Z,53.50
2018-08-12T02:49:47.354Z,53.50
2018-08-12T02:52:15.483Z,53.50
2018-08-12T02:54:43.626Z,53.50
2018-08-12T02:57:11.759Z,53.40
2018-08-12T02:59:39.890Z,53.50
2018-08-12T03:02:08.015Z,53.50
2018-08-12T03:04:36.135Z,53.70
2018-08-12T03:07:04.645Z,53.80
2018-08-12T03:09:32.773Z,53.70
2018-08-12T03:12:00.991Z,53.70
2018-08-12T03:14:29.112Z,53.60
2018-08-12T03:16:57.230Z,53.60
2018-08-12T03:19:25.375Z,53.50
2018-08-12T03:21:53.502Z,53.30
2018-08-12T03:24:21.642Z,52.60
2018-08-12T03:26:49.769Z,53.20
2018-08-12T03:29:17.962Z,53.10
2018-08-12T03:31:46.086Z,53.00
2018-08-12T03:34:14.221Z,53.00
2018-08-12T03:36:42.540Z,53.00
2018-08-12T03:39:11.787Z,53.00
2018-08-12T03:41:39.928Z,52.90
2018-08-12T03:44:08.082Z,53.70
2018-08-12T03:46:36.405Z,52.90
2018-08-12T03:49:04.743Z,52.90
2018-08-12T03:51:32.872Z,52.90
2018-08-12T03:54:01.001Z,52.90
2018-08-12T03:56:29.144Z,52.90
2018-08-12T03:58:57.283Z,52.90
2018-08-12T04:01:25.418Z,52.90
2018-08-12T04:03:53.604Z,52.80
2018-08-12T04:06:21.757Z,52.90
2018-08-12T04:08:49.886Z,52.70
2018-08-12T04:11:18.018Z,52.60
2018-08-12T04:13:46.158Z,52.60
2018-08-12T04:16:14.290Z,52.50
2018-08-12T04:18:42.537Z,52.50
2018-08-12T04:21:10.660Z,52.50
2018-08-12T04:23:38.902Z,52.50
2018-08-12T04:26:07.074Z,52.50
2018-08-12T04:28:35.308Z,52.50
2018-08-12T04:31:03.549Z,52.50
2018-08-12T04:33:31.681Z,52.50
2018-08-12T04:35:59.817Z,52.40
2018-08-12T04:38:28.005Z,52.50
2018-08-12T04:40:56.131Z,52.60
2018-08-12T04:43:24.248Z,52.40
2018-08-12T04:45:52.409Z,52.40
2018-08-12T04:48:20.550Z,52.50
2018-08-12T04:50:48.689Z,52.60
2018-08-12T04:53:16.813Z,52.90
2018-08-12T04:55:44.970Z,52.50
2018-08-12T04:58:13.104Z,52.50
2018-08-12T05:00:41.233Z,52.50
2018-08-12T05:03:09.358Z,52.50
2018-08-12T05:05:37.503Z,53.30
2018-08-12T05:08:05.745Z,52.50
2018-08-12T05:10:33.891Z,52.40
2018-08-12T05:13:02.022Z,52.50
2018-08-12T05:15:30.808Z,52.50
2018-08-12T05:17:58.942Z,52.50
2018-08-12T05:20:27.073Z,52.70
2018-08-12T05:22:55.251Z,52.80
2018-08-12T05:25:23.406Z,52.70
2018-08-12T05:27:51.539Z,52.80
2018-08-12T05:30:19.661Z,52.90
2018-08-12T05:32:47.782Z,52.80
2018-08-12T05:35:15.915Z,52.90
2018-08-12T05:37:44.346Z,52.60
2018-08-12T05:40:13.047Z,52.40
2018-08-12T05:42:41.277Z,52.20
2018-08-12T05:45:10.387Z,52.10
2018-08-12T05:47:39.274Z,52.00
2018-08-12T05:50:08.490Z,51.70
2018-08-12T05:52:36.656Z,51.70
2018-08-12T05:55:04.998Z,51.90
2018-08-12T05:57:33.148Z,52.00
2018-08-12T06:00:01.390Z,52.00
2018-08-12T06:02:29.525Z,51.80
2018-08-12T06:04:57.690Z,51.80
2018-08-12T06:07:25.873Z,51.70
2018-08-12T06:09:54.025Z,51.70
2018-08-12T06:12:22.174Z,51.60
2018-08-12T06:14:50.307Z,51.60
2018-08-12T06:17:18.503Z,51.70
2018-08-12T06:19:46.574Z,51.90
2018-08-12T06:22:14.717Z,51.80
2018-08-12T06:24:42.873Z,51.80
2018-08-12T06:27:11.126Z,51.50
2018-08-12T06:29:39.280Z,51.70
2018-08-12T06:32:07.428Z,52.10
2018-08-12T06:34:35.559Z,51.40
2018-08-12T06:37:03.721Z,51.30
2018-08-12T06:39:31.846Z,51.00
2018-08-12T06:42:00.001Z,50.70
2018-08-12T06:44:28.140Z,50.40
2018-08-12T06:46:56.277Z,50.30
2018-08-12T06:49:24.491Z,50.50
2018-08-12T06:51:52.645Z,50.90
2018-08-12T06:54:20.752Z,51.00
2018-08-12T06:56:48.996Z,50.60
2018-08-12T06:59:17.195Z,50.10
2018-08-12T07:01:45.334Z,50.00
2018-08-12T07:04:13.477Z,49.90
2018-08-12T07:06:41.899Z,49.40
2018-08-12T07:09:10.937Z,49.30
2018-08-12T07:11:39.198Z,49.30
2018-08-12T07:14:07.709Z,49.00
2018-08-12T07:16:36.494Z,48.80
2018-08-12T07:19:04.979Z,48.60
2018-08-12T07:21:33.362Z,48.70
2018-08-12T07:24:01.722Z,48.50
2018-08-12T07:26:29.894Z,48.30
2018-08-12T07:28:58.047Z,48.20
2018-08-12T07:31:26.165Z,48.20
2018-08-12T07:33:54.326Z,48.00
2018-08-12T07:36:22.466Z,47.90
2018-08-12T07:38:50.652Z,48.50
2018-08-12T07:41:18.737Z,47.40
2018-08-12T07:43:46.882Z,47.20
2018-08-12T07:46:15.009Z,46.90
2018-08-12T07:48:43.184Z,46.90
2018-08-12T07:51:11.285Z,47.10
2018-08-12T07:53:39.414Z,46.80
2018-08-12T07:56:07.555Z,46.20
2018-08-12T07:58:35.672Z,46.40
2018-08-12T08:01:03.805Z,45.90
2018-08-12T08:03:32.031Z,46.10
2018-08-12T08:06:00.161Z,45.80
2018-08-12T08:08:28.301Z,45.40
2018-08-12T08:10:56.417Z,45.20
2018-08-12T08:13:24.579Z,45.20
2018-08-12T08:15:52.736Z,45.20
2018-08-12T08:18:20.987Z,45.10
2018-08-12T08:20:49.119Z,44.60
2018-08-12T08:23:17.241Z,44.30
2018-08-12T08:25:45.381Z,44.10
2018-08-12T08:28:13.510Z,44.10
2018-08-12T08:30:41.693Z,43.90
2018-08-12T08:33:09.824Z,44.30
2018-08-12T08:35:37.937Z,45.00
2018-08-12T08:38:06.099Z,44.70
2018-08-12T08:40:34.218Z,44.60
2018-08-12T08:43:02.356Z,44.50
2018-08-12T08:45:30.480Z,44.60
2018-08-12T08:47:58.618Z,44.20
2018-08-12T08:50:26.750Z,43.90
2018-08-12T08:52:54.906Z,43.80
2018-08-12T08:55:23.110Z,43.60
2018-08-12T08:57:51.506Z,44.30
2018-08-12T09:00:20.666Z,43.80
2018-08-12T09:02:50.322Z,43.80
2018-08-12T09:05:18.903Z,43.80
2018-08-12T09:07:47.277Z,43.50
2018-08-12T09:10:16.566Z,43.60
2018-08-12T09:12:44.742Z,43.90
2018-08-12T09:15:14.973Z,43.90
2018-08-12T09:17:43.957Z,44.20
2018-08-12T09:20:13.681Z,44.10
2018-08-12T09:22:41.977Z,43.70
2018-08-12T09:25:10.830Z,43.60
2018-08-12T09:27:39.045Z,43.10
2018-08-12T09:30:11.601Z,43.60
2018-08-12T09:32:39.803Z,43.60
2018-08-12T09:35:07.962Z,43.90
2018-08-12T09:37:36.518Z,44.00
2018-08-12T09:40:06.719Z,43.70
2018-08-12T09:42:34.869Z,44.20
2018-08-12T09:45:03.009Z,44.30
2018-08-12T09:47:31.151Z,44.70
2018-08-12T09:49:59.291Z,44.70
2018-08-12T09:52:27.449Z,44.60
2018-08-12T09:54:56.490Z,44.40
2018-08-12T09:57:24.635Z,44.30
2018-08-12T09:59:52.757Z,43.80
2018-08-12T10:02:20.909Z,43.80
2018-08-12T10:04:49.044Z,43.90
2018-08-12T10:07:17.286Z,43.80
2018-08-12T10:09:45.425Z,44.80
2018-08-12T10:12:13.556Z,43.70
2018-08-12T10:14:41.689Z,43.00
2018-08-12T10:17:09.825Z,42.70
2018-08-12T10:19:37.962Z,43.20
2018-08-12T10:22:06.102Z,43.50
2018-08-12T10:24:34.256Z,43.60
2018-08-12T10:27:02.408Z,43.40
2018-08-12T10:29:30.548Z,43.40
2018-08-12T10:31:58.677Z,43.00
2018-08-12T10:34:26.820Z,43.30
2018-08-12T10:36:54.950Z,43.60
2018-08-12T10:39:23.096Z,43.60
2018-08-12T10:41:51.243Z,43.50
2018-08-12T10:44:19.421Z,42.70
2018-08-12T10:46:47.577Z,42.60
2018-08-12T10:49:15.713Z,43.10
2018-08-12T10:51:43.857Z,43.20
2018-08-12T10:54:12.033Z,42.70
2018-08-12T10:56:40.182Z,42.50
2018-08-12T10:59:08.321Z,42.60
2018-08-12T11:01:36.459Z,42.70
2018-08-12T11:04:04.648Z,42.50
2018-08-12T11:06:32.839Z,42.00
2018-08-12T11:09:01.025Z,41.80
2018-08-12T11:11:29.165Z,41.60
2018-08-12T11:13:57.303Z,41.30
2018-08-12T11:16:25.481Z,41.40
2018-08-12T11:18:53.634Z,41.30
2018-08-12T11:21:21.768Z,41.40
2018-08-12T11:23:49.905Z,41.20
2018-08-12T11:26:18.045Z,40.80
2018-08-12T11:28:46.178Z,40.50
2018-08-12T11:31:14.321Z,40.30
2018-08-12T11:33:42.481Z,40.50
2018-08-12T11:36:10.629Z,40.70
2018-08-12T11:38:38.767Z,40.60
2018-08-12T11:41:06.935Z,40.40
2018-08-12T11:43:35.125Z,40.70
2018-08-12T11:46:03.270Z,40.60
2018-08-12T11:48:31.423Z,40.50
2018-08-12T11:50:59.578Z,40.60
2018-08-12T11:53:27.704Z,40.70
2018-08-12T11:55:55.837Z,41.20
2018-08-12T11:58:23.961Z,41.10
2018-08-12T12:00:52.099Z,41.50
2018-08-12T12:03:20.233Z,41.80
2018-08-12T12:05:48.406Z,42.00
2018-08-12T12:08:16.549Z,41.90
2018-08-12T12:10:44.747Z,41.30
2018-08-12T12:13:12.880Z,40.90
2018-08-12T12:15:41.024Z,40.90
2018-08-12T12:18:09.157Z,40.90
2018-08-12T12:20:37.407Z,41.20
2018-08-12T12:23:05.529Z,41.10
2018-08-12T12:25:33.677Z,40.60
2018-08-12T12:28:01.818Z,40.40
2018-08-12T12:30:29.959Z,40.50
2018-08-12T12:32:58.176Z,41.00
2018-08-12T12:35:26.375Z,41.30
2018-08-12T12:37:54.437Z,41.50
2018-08-12T12:40:22.569Z,40.70
2018-08-12T12:42:50.707Z,40.60
2018-08-12T12:45:18.841Z,40.80
2018-08-12T12:47:47.006Z,40.60
2018-08-12T12:50:18.646Z,40.90
2018-08-12T12:52:47.667Z,40.70
2018-08-12T12:55:16.055Z,40.50
2018-08-12T12:57:44.176Z,40.30
2018-08-12T13:00:14.106Z,40.60
2018-08-12T13:02:42.271Z,40.40
2018-08-12T13:05:12.325Z,40.30
2018-08-12T13:07:40.609Z,40.60
2018-08-12T13:10:10.001Z,40.70
2018-08-12T13:12:38.472Z,40.50
2018-08-12T13:15:07.710Z,40.60
2018-08-12T13:17:35.999Z,40.50
2018-08-12T13:20:05.370Z,40.70
2018-08-12T13:22:33.514Z,40.80
2018-08-12T13:25:02.036Z,40.80
2018-08-12T13:27:30.057Z,40.70
2018-08-12T13:29:58.176Z,40.70
2018-08-12T13:32:26.314Z,40.90
2018-08-12T13:34:54.467Z,40.70
2018-08-12T13:37:22.636Z,40.90
2018-08-12T13:39:50.761Z,40.50
2018-08-12T13:42:19.102Z,40.10
2018-08-12T13:44:47.234Z,39.70
2018-08-12T13:47:15.394Z,39.70
2018-08-12T13:49:43.530Z,40.60
2018-08-12T13:52:11.660Z,39.80
2018-08-12T13:54:39.797Z,39.70
2018-08-12T13:57:07.973Z,40.00
2018-08-12T13:59:36.110Z,40.00
2018-08-12T14:02:04.319Z,40.00
2018-08-12T14:04:32.453Z,40.00
2018-08-12T14:07:00.619Z,39.90
2018-08-12T14:09:28.761Z,39.30
2018-08-12T14:11:56.912Z,39.30
2018-08-12T14:14:25.050Z,39.40
2018-08-12T14:16:54.031Z,39.10
2018-08-12T14:19:22.161Z,39.30
2018-08-12T14:21:50.296Z,39.30
2018-08-12T14:24:18.436Z,39.30
2018-08-12T14:26:46.578Z,39.20
2018-08-12T14:29:14.738Z,39.00
2018-08-12T14:31:42.879Z,39.10
2018-08-12T14:34:11.010Z,38.60
2018-08-12T14:36:39.172Z,38.70
2018-08-12T14:39:08.506Z,38.70
2018-08-12T14:41:36.685Z,38.90
2018-08-12T14:44:05.425Z,38.70
2018-08-12T14:46:33.573Z,38.70
2018-08-12T14:49:01.716Z,38.40
2018-08-12T14:51:29.843Z,38.40
2018-08-12T14:53:57.999Z,38.60
2018-08-12T14:56:26.137Z,38.70
2018-08-12T14:58:54.457Z,38.40
2018-08-12T15:01:22.603Z,38.10
2018-08-12T15:03:50.736Z,38.00
2018-08-12T15:06:18.866Z,38.00
2018-08-12T15:08:47.211Z,37.60
2018-08-12T15:11:15.332Z,37.40
2018-08-12T15:13:43.476Z,37.40
2018-08-12T15:16:11.619Z,37.20
2018-08-12T15:18:39.756Z,37.30
2018-08-12T15:21:08.170Z,36.90
2018-08-12T15:23:36.446Z,36.90
2018-08-12T15:26:04.643Z,36.80
2018-08-12T15:28:32.819Z,36.70
2018-08-12T15:31:00.946Z,36.90
2018-08-12T15:33:29.115Z,36.70
2018-08-12T15:35:57.238Z,36.60
2018-08-12T15:38:25.379Z,36.70
2018-08-12T15:40:53.598Z,36.80
2018-08-12T15:43:21.735Z,36.80
2018-08-12T15:45:49.910Z,36.90
2018-08-12T15:48:18.075Z,36.80
2018-08-12T15:50:46.198Z,36.60
2018-08-12T15:53:14.391Z,36.20
2018-08-12T15:55:42.520Z,36.30
2018-08-12T15:58:10.718Z,36.40
2018-08-12T16:00:38.852Z,36.40
2018-08-12T16:03:07.003Z,36.70
2018-08-12T16:05:35.129Z,36.80
2018-08-12T16:08:03.272Z,36.60
2018-08-12T16:10:31.509Z,36.40
2018-08-12T16:12:59.655Z,36.40
2018-08-12T16:15:27.798Z,36.30
2018-08-12T16:17:55.967Z,36.30
2018-08-12T16:20:24.134Z,36.20
2018-08-12T16:22:52.283Z,36.10
2018-08-12T16:25:21.430Z,36.10
2018-08-12T16:27:49.666Z,36.30
2018-08-12T16:30:18.425Z,36.10
2018-08-12T16:32:46.668Z,36.00
2018-08-12T16:35:15.853Z,35.80
2018-08-12T16:37:44.638Z,35.60
2018-08-12T16:40:14.453Z,35.60
2018-08-12T16:42:42.597Z,35.70
2018-08-12T16:45:11.761Z,35.80
2018-08-12T16:47:39.911Z,35.90
2018-08-12T16:50:08.837Z,35.70
2018-08-12T16:52:37.298Z,35.70
2018-08-12T16:55:06.882Z,35.80
2018-08-12T16:57:35.051Z,36.00
2018-08-12T17:00:03.216Z,36.00
2018-08-12T17:02:31.399Z,35.90
2018-08-12T17:04:59.497Z,35.90
2018-08-12T17:07:27.625Z,35.70
2018-08-12T17:09:55.761Z,35.50
2018-08-12T17:12:24.178Z,35.40
2018-08-12T17:14:52.341Z,35.40
2018-08-12T17:17:20.478Z,35.30
2018-08-12T17:19:48.613Z,35.30
2018-08-12T17:22:16.811Z,35.50
2018-08-12T17:24:44.885Z,35.60
2018-08-12T17:27:13.029Z,36.50
2018-08-12T17:29:41.320Z,35.80
2018-08-12T17:32:09.415Z,35.80
2018-08-12T17:34:37.742Z,35.60
2018-08-12T17:37:05.950Z,35.60
2018-08-12T17:39:34.099Z,35.50
2018-08-12T17:42:02.281Z,35.60
2018-08-12T17:44:30.422Z,35.60
2018-08-12T17:46:58.651Z,35.60
2018-08-12T17:49:26.776Z,35.70
2018-08-12T17:51:54.918Z,35.70
2018-08-12T17:54:23.093Z,35.60
2018-08-12T17:56:51.217Z,35.60
2018-08-12T17:59:19.354Z,35.60
2018-08-12T18:01:47.486Z,35.70
2018-08-12T18:04:15.631Z,35.70
2018-08-12T18:06:43.745Z,35.70
2018-08-12T18:09:11.889Z,35.60
2018-08-12T18:11:40.669Z,35.50
2018-08-12T18:14:08.849Z,35.40
2018-08-12T18:16:36.981Z,35.40
2018-08-12T18:19:05.137Z,35.40
2018-08-12T18:21:33.263Z,35.40
2018-08-12T18:24:01.457Z,35.40
2018-08-12T18:26:29.617Z,35.40
2018-08-12T18:28:57.733Z,35.60
2018-08-12T18:31:26.058Z,35.90
2018-08-12T18:33:54.198Z,36.00
2018-08-12T18:36:22.397Z,36.10
2018-08-12T18:38:50.538Z,36.30
2018-08-12T18:41:18.688Z,36.50
2018-08-12T18:43:46.893Z,36.40
2018-08-12T18:46:15.045Z,36.50
2018-08-12T18:48:43.187Z,36.70
2018-08-12T18:51:11.327Z,36.90
2018-08-12T18:53:39.467Z,37.00
2018-08-12T18:56:07.706Z,37.10
2018-08-12T18:58:35.762Z,37.30
2018-08-12T19:01:03.914Z,37.40
2018-08-12T19:03:32.349Z,37.40
2018-08-12T19:06:00.506Z,37.50
2018-08-12T19:08:28.634Z,37.60
2018-08-12T19:10:56.781Z,37.60
2018-08-12T19:13:24.956Z,37.60
2018-08-12T19:15:53.105Z,37.70
2018-08-12T19:18:21.251Z,38.00
2018-08-12T19:20:49.381Z,38.20
2018-08-12T19:23:17.535Z,38.10
2018-08-12T19:25:45.671Z,38.70
2018-08-12T19:28:13.905Z,38.20
2018-08-12T19:30:42.063Z,38.30
2018-08-12T19:33:10.219Z,38.70
2018-08-12T19:35:38.349Z,38.70
2018-08-12T19:38:06.502Z,39.30
2018-08-12T19:40:34.632Z,38.80
2018-08-12T19:43:02.861Z,38.90
2018-08-12T19:45:30.994Z,39.00
2018-08-12T19:47:59.136Z,39.20
2018-08-12T19:50:27.286Z,39.20
2018-08-12T19:52:55.424Z,39.30
2018-08-12T19:55:23.556Z,39.40
2018-08-12T19:57:51.694Z,39.50
2018-08-12T20:00:19.815Z,39.60
2018-08-12T20:02:47.958Z,40.00
2018-08-12T20:05:16.083Z,40.10
2018-08-12T20:07:44.248Z,40.10
2018-08-12T20:10:12.647Z,40.10
2018-08-12T20:12:40.768Z,40.20
2018-08-12T20:15:10.326Z,40.40
2018-08-12T20:17:38.688Z,40.60
2018-08-12T20:20:08.512Z,40.70
2018-08-12T20:22:36.635Z,40.80
2018-08-12T20:25:06.136Z,40.70
2018-08-12T20:27:34.300Z,40.70
2018-08-12T20:30:02.484Z,40.80
2018-08-12T20:32:30.618Z,40.90
2018-08-12T20:34:58.785Z,40.70
2018-08-12T20:37:27.267Z,40.70
2018-08-12T20:39:55.406Z,40.60
2018-08-12T20:42:23.614Z,40.50
2018-08-12T20:44:51.740Z,40.50
2018-08-12T20:47:19.882Z,40.40
2018-08-12T20:49:48.026Z,40.40
2018-08-12T20:52:16.174Z,40.40
2018-08-12T20:54:44.325Z,40.30
2018-08-12T20:57:12.452Z,40.30
2018-08-12T20:59:40.577Z,40.30
2018-08-12T21:02:08.868Z,40.20
2018-08-12T21:04:37.021Z,40.30
2018-08-12T21:07:05.146Z,40.30
2018-08-12T21:09:33.446Z,40.30
2018-08-12T21:12:01.740Z,40.30
2018-08-12T21:14:29.737Z,40.30
2018-08-12T21:16:57.976Z,40.20
2018-08-12T21:19:26.409Z,40.20
2018-08-12T21:21:54.529Z,40.10
2018-08-12T21:24:22.658Z,39.90
2018-08-12T21:26:50.813Z,39.80
2018-08-12T21:29:18.980Z,39.70
2018-08-12T21:31:47.137Z,39.70
2018-08-12T21:34:15.294Z,39.80
2018-08-12T21:36:43.422Z,39.80
2018-08-12T21:39:13.202Z,40.30
2018-08-12T21:41:41.494Z,39.70
2018-08-12T21:44:09.657Z,39.90
2018-08-12T21:46:37.814Z,40.00
2018-08-12T21:49:06.221Z,40.20
2018-08-12T21:51:35.042Z,40.50
2018-08-12T21:54:03.182Z,40.80
2018-08-12T21:56:31.315Z,41.00
2018-08-12T21:58:59.439Z,41.20
2018-08-12T22:01:27.662Z,41.50
2018-08-12T22:03:55.906Z,41.60
2018-08-12T22:06:24.042Z,41.80
2018-08-12T22:08:52.162Z,42.00
2018-08-12T22:11:20.315Z,42.00
2018-08-12T22:13:48.490Z,42.20
2018-08-12T22:16:16.601Z,42.40
2018-08-12T22:18:44.949Z,42.50
2018-08-12T22:21:13.066Z,42.70
2018-08-12T22:23:41.199Z,43.60
2018-08-12T22:26:09.318Z,42.80
2018-08-12T22:28:37.449Z,43.00
2018-08-12T22:31:05.582Z,42.90
2018-08-12T22:33:33.746Z,43.00
2018-08-12T22:36:01.891Z,43.00
2018-08-12T22:38:30.033Z,43.10
2018-08-12T22:40:58.192Z,43.20
2018-08-12T22:43:26.378Z,43.30
2018-08-12T22:45:54.514Z,43.50
2018-08-12T22:48:22.651Z,43.40
2018-08-12T22:50:50.786Z,43.10
2018-08-12T22:53:18.921Z,42.80
2018-08-12T22:55:47.054Z,42.60
2018-08-12T22:58:15.207Z,42.30
2018-08-12T23:00:43.379Z,42.00
2018-08-12T23:03:11.772Z,41.60
2018-08-12T23:05:39.919Z,41.50
2018-08-12T23:08:09.819Z,41.40
2018-08-12T23:10:38.633Z,41.10
2018-08-12T23:13:06.781Z,40.80
2018-08-12T23:16:18.827Z,40.60
2018-08-12T23:18:46.967Z,40.40
2018-08-12T23:21:16.284Z,40.30
2018-08-12T23:23:45.493Z,40.10
2018-08-12T23:26:14.810Z,39.90
2018-08-12T23:28:42.996Z,39.70
2018-08-12T23:31:11.130Z,39.60
2018-08-12T23:33:39.710Z,39.40
2018-08-12T23:36:08.052Z,39.30
2018-08-12T23:38:36.674Z,39.20
2018-08-12T23:41:04.872Z,39.20
2018-08-12T23:43:33.105Z,39.20
2018-08-12T23:46:01.245Z,39.10
2018-08-12T23:48:30.094Z,39.00
2018-08-12T23:50:58.242Z,39.00
2018-08-12T23:53:26.364Z,39.60
2018-08-12T23:55:54.501Z,38.80
2018-08-12T23:58:22.637Z,38.80
